SPZO

Alejandro Velasco Astete International Airport

Cusco, Peru
TAF SPZO 162300Z 1700/1724 27005KT 9999 FEW045 TX18/1719Z TN00/1711Z BECMG 1708/1710 00000KT FEW043 SCT080 TEMPO 1719/1723 28012KT FEW040TCU SCT046 BKN080 BECMG 1723/1724 VRB02KT SCT050
Issued Valid From Valid To
Jul-16 @ 23:00 UTC
(an hour ago)
Jul-17 @ 00:00 UTC
(24 minutes ago)
Jul-18 @ 00:00 UTC
(in 24 hours)
Jul-17 @ 00:00 to Jul-17 @ 08:00
TAF SPZO 162300Z 1700/1724 27005KT 9999 FEW045 TX18/1719Z TN00/1711Z
Wind Visibility Clouds
270° at 5 knots 10,000+ meters
  • Few at 4,500' AGL
Becoming Jul-17 @ 08:00 to Jul-17 @ 23:00
BECMG 1708/1710 00000KT FEW043 SCT080
Visibility Clouds
10,000+ meters
  • Few at 4,300' AGL
  • Scattered at 8,000' AGL
Temporary Jul-17 @ 19:00 to Jul-17 @ 23:00
TEMPO 1719/1723 28012KT FEW040TCU SCT046 BKN080
Wind Clouds
280° at 12 knots
  • Few at 4,000' AGL
  • Scattered at 4,600' AGL
  • Broken at 8,000' AGL
Becoming Jul-17 @ 23:00 to Jul-18 @ 00:00
BECMG 1723/1724 VRB02KT SCT050
Wind Visibility Clouds
Variable at 2 knots 10,000+ meters
  • Scattered at 5,000' AGL
TAF SPZO 162300Z 1700/1724 27005KT 9999 FEW045 TX18/1719Z TN00/1711Z BECMG 1708/1710 00000KT FEW043 SCT080 TEMPO 1719/1723 28012KT FEW040TCU SCT046 BKN080 BECMG 1723/1724 VRB02KT SCT050
Issued Jul-16 @ 23:00 UTC
(an hour ago)
Valid From Jul-17 @ 00:00 UTC
(24 minutes ago)
Valid To Jul-18 @ 00:00 UTC
(in 24 hours)
Jul-17 @ 00:00 - Jul-17 @ 08:00
Wind Visibility
270° at 5 knots 10,000+ meters
Clouds
  • Few at 4,500' AGL
Becoming Jul-17 @ 08:00 - Jul-17 @ 23:00
Clouds
  • Few at 4,300' AGL
  • Scattered at 8,000' AGL
Temporary Jul-17 @ 19:00 - Jul-17 @ 23:00
Wind
280° at 12 knots
Clouds
  • Few at 4,000' AGL
  • Scattered at 4,600' AGL
  • Broken at 8,000' AGL
Becoming Jul-17 @ 23:00 - Jul-18 @ 00:00
Wind Visibility
Variable at 2 knots 10,000+ meters
Clouds
  • Scattered at 5,000' AGL